Rehobeth, Alabama
Current Conditions -  °F | °C
As of 5:53 AM on Monday 26 Jan 2015 (Local Time) from KDHN Reporting Station
Scattered Clouds Scattered Clouds  
Wind Chill: 40°   Ceiling: Unl
Heat Index: 45°   Visibility: 10mi
Dew Point: 38°   Wind: 10mph
Humidity: 76%   Direction: 290°WNW
Pressure: 29.92"   Gusts: NA
Location:  31.271°N, 85.3923°W
Report Text: KDHN 261153Z 29009KT 10SM SCT044 07/03 A2992 RMK AO2 SLP132 T00720033 10106 20072 53013
Loading
Personal Weather Stations






























Interactive Weather Map New forecast layout! Learn more

10-Day Weather Forecast

Advertisements
Track Severe Weather on mobile